sensor_id;sensor_type;location;lat;lon;timestamp;pressure;altitude;pressure_sealevel;temperature;humidity
78932;BME280;68331;53.362;55.932;2023-08-17T00:01:09;99768.78;;;21.97;46.09
78932;BME280;68331;53.362;55.932;2023-08-17T00:03:35;99768.78;;;21.97;46.09
78932;BME280;68331;53.362;55.932;2023-08-17T00:06:00;99762.41;;;21.98;45.88
78932;BME280;68331;53.362;55.932;2023-08-17T00:08:27;99768.53;;;22.00;45.75
78932;BME280;68331;53.362;55.932;2023-08-17T00:10:53;99771.94;;;22.02;45.74
78932;BME280;68331;53.362;55.932;2023-08-17T00:13:19;99772.66;;;22.04;45.31
78932;BME280;68331;53.362;55.932;2023-08-17T00:15:45;99777.53;;;22.10;45.14
78932;BME280;68331;53.362;55.932;2023-08-17T00:18:11;99775.59;;;22.12;45.13
78932;BME280;68331;53.362;55.932;2023-08-17T00:20:37;99777.94;;;22.17;44.94
78932;BME280;68331;53.362;55.932;2023-08-17T00:23:03;99770.94;;;22.14;45.06
78932;BME280;68331;53.362;55.932;2023-08-17T00:25:29;99768.03;;;22.06;45.52
78932;BME280;68331;53.362;55.932;2023-08-17T00:27:55;99771.06;;;22.01;45.76
78932;BME280;68331;53.362;55.932;2023-08-17T00:30:22;99762.78;;;21.93;45.85
78932;BME280;68331;53.362;55.932;2023-08-17T00:32:48;99769.63;;;21.97;45.55
78932;BME280;68331;53.362;55.932;2023-08-17T00:35:14;99771.59;;;21.95;45.14
78932;BME280;68331;53.362;55.932;2023-08-17T00:37:40;99775.59;;;22.01;45.36
78932;BME280;68331;53.362;55.932;2023-08-17T00:40:06;99770.13;;;22.02;44.90
78932;BME280;68331;53.362;55.932;2023-08-17T00:42:32;99779.28;;;22.00;45.05
78932;BME280;68331;53.362;55.932;2023-08-17T00:44:58;99778.66;;;21.96;45.07
78932;BME280;68331;53.362;55.932;2023-08-17T00:47:25;99779.03;;;21.92;45.11
78932;BME280;68331;53.362;55.932;2023-08-17T00:49:52;99783.06;;;21.97;44.95
78932;BME280;68331;53.362;55.932;2023-08-17T00:52:18;99785.75;;;21.97;44.79
78932;BME280;68331;53.362;55.932;2023-08-17T00:54:45;99791.00;;;21.99;45.05
78932;BME280;68331;53.362;55.932;2023-08-17T00:57:11;99798.19;;;21.98;44.82
78932;BME280;68331;53.362;55.932;2023-08-17T00:59:38;99799.06;;;21.99;45.14
78932;BME280;68331;53.362;55.932;2023-08-17T01:02:04;99804.78;;;21.94;45.36
78932;BME280;68331;53.362;55.932;2023-08-17T01:04:31;99800.50;;;21.92;45.50
78932;BME280;68331;53.362;55.932;2023-08-17T01:06:57;99809.69;;;21.89;45.44
78932;BME280;68331;53.362;55.932;2023-08-17T01:09:23;99812.38;;;21.89;45.51
78932;BME280;68331;53.362;55.932;2023-08-17T01:12:13;99812.25;;;21.91;45.95
78932;BME280;68331;53.362;55.932;2023-08-17T01:17:29;99819.19;;;21.82;46.23
78932;BME280;68331;53.362;55.932;2023-08-17T01:19:58;99820.06;;;21.82;46.32
78932;BME280;68331;53.362;55.932;2023-08-17T01:22:25;99829.69;;;21.85;45.85
78932;BME280;68331;53.362;55.932;2023-08-17T01:24:55;99839.47;;;21.86;45.93
78932;BME280;68331;53.362;55.932;2023-08-17T01:27:23;99840.44;;;21.85;45.60
78932;BME280;68331;53.362;55.932;2023-08-17T01:29:51;99843.13;;;21.85;45.78
78932;BME280;68331;53.362;55.932;2023-08-17T01:32:48;99851.19;;;21.85;45.58
78932;BME280;68331;53.362;55.932;2023-08-17T01:35:31;99847.28;;;21.89;45.30
78932;BME280;68331;53.362;55.932;2023-08-17T01:38:06;99845.56;;;21.88;45.53
78932;BME280;68331;53.362;55.932;2023-08-17T01:40:33;99849.75;;;21.92;45.81
78932;BME280;68331;53.362;55.932;2023-08-17T01:43:01;99848.75;;;21.93;45.95
78932;BME280;68331;53.362;55.932;2023-08-17T01:45:28;99844.47;;;21.91;45.81
78932;BME280;68331;53.362;55.932;2023-08-17T01:47:55;99856.69;;;21.95;45.87
78932;BME280;68331;53.362;55.932;2023-08-17T01:50:21;99861.69;;;21.99;45.13
78932;BME280;68331;53.362;55.932;2023-08-17T01:52:49;99864.75;;;22.06;44.68
78932;BME280;68331;53.362;55.932;2023-08-17T01:55:17;99856.22;;;22.12;44.49
78932;BME280;68331;53.362;55.932;2023-08-17T01:57:43;99848.78;;;22.16;43.75
78932;BME280;68331;53.362;55.932;2023-08-17T02:00:09;99855.13;;;22.26;43.78
78932;BME280;68331;53.362;55.932;2023-08-17T02:02:42;99858.06;;;22.34;43.69
78932;BME280;68331;53.362;55.932;2023-08-17T02:05:08;99864.91;;;22.38;43.70
78932;BME280;68331;53.362;55.932;2023-08-17T02:07:34;99862.69;;;22.43;43.48
78932;BME280;68331;53.362;55.932;2023-08-17T02:10:00;99867.84;;;22.46;43.57
78932;BME280;68331;53.362;55.932;2023-08-17T02:12:26;99870.00;;;22.52;42.84
78932;BME280;68331;53.362;55.932;2023-08-17T02:14:52;99864.25;;;22.57;42.70
78932;BME280;68331;53.362;55.932;2023-08-17T02:17:19;99863.88;;;22.62;42.28
78932;BME280;68331;53.362;55.932;2023-08-17T02:19:47;99862.41;;;22.69;41.96
78932;BME280;68331;53.362;55.932;2023-08-17T02:22:14;99869.09;;;22.74;41.89
78932;BME280;68331;53.362;55.932;2023-08-17T02:24:40;99867.88;;;22.79;41.96
78932;BME280;68331;53.362;55.932;2023-08-17T02:27:07;99868.22;;;22.85;41.51
78932;BME280;68331;53.362;55.932;2023-08-17T02:29:33;99872.22;;;22.91;41.09
78932;BME280;68331;53.362;55.932;2023-08-17T02:32:00;99880.81;;;22.96;41.26
78932;BME280;68331;53.362;55.932;2023-08-17T02:34:27;99867.97;;;23.00;41.21
78932;BME280;68331;53.362;55.932;2023-08-17T02:36:53;99872.38;;;23.01;40.74
78932;BME280;68331;53.362;55.932;2023-08-17T02:39:19;99874.94;;;23.02;40.97
78932;BME280;68331;53.362;55.932;2023-08-17T02:41:45;99876.53;;;23.05;40.99
78932;BME280;68331;53.362;55.932;2023-08-17T02:44:14;99879.31;;;23.03;41.00
78932;BME280;68331;53.362;55.932;2023-08-17T02:46:41;99874.09;;;23.02;41.11
78932;BME280;68331;53.362;55.932;2023-08-17T02:49:07;99874.69;;;22.94;40.89
78932;BME280;68331;53.362;55.932;2023-08-17T02:51:33;99866.84;;;22.91;41.17
78932;BME280;68331;53.362;55.932;2023-08-17T02:53:59;99867.97;;;22.88;41.47
78932;BME280;68331;53.362;55.932;2023-08-17T02:56:26;99858.31;;;22.86;41.44
78932;BME280;68331;53.362;55.932;2023-08-17T02:58:52;99870.69;;;22.88;41.49
78932;BME280;68331;53.362;55.932;2023-08-17T03:01:19;99870.41;;;22.91;41.25
78932;BME280;68331;53.362;55.932;2023-08-17T03:03:45;99872.91;;;22.94;41.15
78932;BME280;68331;53.362;55.932;2023-08-17T03:06:11;99870.78;;;22.98;40.94
78932;BME280;68331;53.362;55.932;2023-08-17T03:08:39;99883.25;;;22.99;40.91
78932;BME280;68331;53.362;55.932;2023-08-17T03:11:06;99883.16;;;23.01;41.26
78932;BME280;68331;53.362;55.932;2023-08-17T03:13:33;99879.47;;;23.02;41.33
78932;BME280;68331;53.362;55.932;2023-08-17T03:15:59;99881.91;;;23.05;41.25
78932;BME280;68331;53.362;55.932;2023-08-17T03:18:25;99884.09;;;23.11;41.19
78932;BME280;68331;53.362;55.932;2023-08-17T03:20:51;99891.50;;;23.18;41.16
78932;BME280;68331;53.362;55.932;2023-08-17T03:23:17;99891.84;;;23.25;40.54
78932;BME280;68331;53.362;55.932;2023-08-17T03:25:43;99898.41;;;23.32;40.67
78932;BME280;68331;53.362;55.932;2023-08-17T03:28:11;99896.19;;;23.37;40.73
78932;BME280;68331;53.362;55.932;2023-08-17T03:30:37;99897.25;;;23.46;40.24
78932;BME280;68331;53.362;55.932;2023-08-17T03:33:04;99898.19;;;23.56;40.20
78932;BME280;68331;53.362;55.932;2023-08-17T03:35:31;99891.78;;;23.69;39.68
78932;BME280;68331;53.362;55.932;2023-08-17T03:37:58;99895.19;;;23.92;39.74
78932;BME280;68331;53.362;55.932;2023-08-17T03:40:25;99894.34;;;24.22;39.33
78932;BME280;68331;53.362;55.932;2023-08-17T03:42:52;99898.75;;;24.53;38.22
78932;BME280;68331;53.362;55.932;2023-08-17T03:45:18;99900.41;;;24.85;37.84
78932;BME280;68331;53.362;55.932;2023-08-17T03:47:44;99904.03;;;25.34;37.47
78932;BME280;68331;53.362;55.932;2023-08-17T03:50:11;99903.31;;;25.81;36.44
78932;BME280;68331;53.362;55.932;2023-08-17T03:52:37;99901.09;;;26.13;35.82
78932;BME280;68331;53.362;55.932;2023-08-17T03:55:03;99902.09;;;26.12;35.79
78932;BME280;68331;53.362;55.932;2023-08-17T03:57:33;99899.91;;;26.26;35.53
78932;BME280;68331;53.362;55.932;2023-08-17T03:59:59;99897.56;;;26.50;34.88
78932;BME280;68331;53.362;55.932;2023-08-17T04:02:25;99897.88;;;26.75;34.79
78932;BME280;68331;53.362;55.932;2023-08-17T04:04:52;99904.66;;;26.79;34.27
78932;BME280;68331;53.362;55.932;2023-08-17T04:07:22;99902.81;;;26.79;34.36
78932;BME280;68331;53.362;55.932;2023-08-17T04:09:49;99912.69;;;26.71;34.50
78932;BME280;68331;53.362;55.932;2023-08-17T04:12:17;99904.66;;;26.79;34.62
78932;BME280;68331;53.362;55.932;2023-08-17T04:14:44;99907.47;;;27.32;33.64
78932;BME280;68331;53.362;55.932;2023-08-17T04:17:11;99903.28;;;28.00;32.82
78932;BME280;68331;53.362;55.932;2023-08-17T04:19:37;99905.13;;;27.99;32.40
78932;BME280;68331;53.362;55.932;2023-08-17T04:22:06;99904.19;;;27.83;32.98
78932;BME280;68331;53.362;55.932;2023-08-17T04:24:32;99902.78;;;27.78;32.72
78932;BME280;68331;53.362;55.932;2023-08-17T04:26:58;99913.84;;;27.67;32.76
78932;BME280;68331;53.362;55.932;2023-08-17T04:29:25;99909.47;;;27.48;32.84
78932;BME280;68331;53.362;55.932;2023-08-17T04:31:51;99908.22;;;27.43;33.40
78932;BME280;68331;53.362;55.932;2023-08-17T04:34:20;99917.91;;;27.45;33.03
78932;BME280;68331;53.362;55.932;2023-08-17T04:36:45;99914.56;;;27.33;33.13
78932;BME280;68331;53.362;55.932;2023-08-17T04:39:12;99928.06;;;27.25;33.24
78932;BME280;68331;53.362;55.932;2023-08-17T04:41:38;99932.84;;;27.13;34.06
78932;BME280;68331;53.362;55.932;2023-08-17T04:44:07;99927.16;;;27.07;33.99
78932;BME280;68331;53.362;55.932;2023-08-17T04:46:33;99927.69;;;27.10;33.88
78932;BME280;68331;53.362;55.932;2023-08-17T04:48:59;99931.25;;;27.11;33.66
78932;BME280;68331;53.362;55.932;2023-08-17T04:51:26;99938.59;;;27.28;34.05
78932;BME280;68331;53.362;55.932;2023-08-17T04:53:51;99940.59;;;27.26;33.48
78932;BME280;68331;53.362;55.932;2023-08-17T04:56:18;99937.66;;;27.20;33.65
78932;BME280;68331;53.362;55.932;2023-08-17T04:58:44;99946.66;;;27.10;33.36
78932;BME280;68331;53.362;55.932;2023-08-17T05:01:13;99935.72;;;27.02;33.78
78932;BME280;68331;53.362;55.932;2023-08-17T05:03:39;99941.59;;;26.98;33.66
78932;BME280;68331;53.362;55.932;2023-08-17T05:06:06;99933.94;;;26.93;33.93
78932;BME280;68331;53.362;55.932;2023-08-17T05:08:32;99938.19;;;26.96;33.42
78932;BME280;68331;53.362;55.932;2023-08-17T05:10:58;99939.13;;;27.04;33.49
78932;BME280;68331;53.362;55.932;2023-08-17T05:13:25;99940.97;;;27.13;33.68
78932;BME280;68331;53.362;55.932;2023-08-17T05:15:53;99925.50;;;27.24;33.65
78932;BME280;68331;53.362;55.932;2023-08-17T05:18:21;99939.59;;;27.45;33.86
78932;BME280;68331;53.362;55.932;2023-08-17T05:20:47;99936.00;;;27.63;33.32
78932;BME280;68331;53.362;55.932;2023-08-17T05:23:13;99935.53;;;27.67;33.12
78932;BME280;68331;53.362;55.932;2023-08-17T05:25:45;99939.78;;;27.88;33.29
78932;BME280;68331;53.362;55.932;2023-08-17T05:28:14;99933.31;;;28.07;32.80
78932;BME280;68331;53.362;55.932;2023-08-17T05:30:40;99938.19;;;28.21;32.79
78932;BME280;68331;53.362;55.932;2023-08-17T05:33:06;99935.69;;;28.36;32.10
78932;BME280;68331;53.362;55.932;2023-08-17T05:35:32;99949.75;;;28.57;31.88
78932;BME280;68331;53.362;55.932;2023-08-17T05:37:58;99951.31;;;28.68;31.62
78932;BME280;68331;53.362;55.932;2023-08-17T05:40:25;99955.13;;;28.83;31.07
78932;BME280;68331;53.362;55.932;2023-08-17T05:42:51;99956.09;;;29.08;30.99
78932;BME280;68331;53.362;55.932;2023-08-17T05:45:17;99967.34;;;29.38;30.58
78932;BME280;68331;53.362;55.932;2023-08-17T05:47:43;99954.28;;;29.58;30.12
78932;BME280;68331;53.362;55.932;2023-08-17T05:50:11;99965.03;;;29.76;30.08
78932;BME280;68331;53.362;55.932;2023-08-17T05:52:37;99958.41;;;29.95;30.15
78932;BME280;68331;53.362;55.932;2023-08-17T05:55:03;99962.81;;;29.96;30.20
78932;BME280;68331;53.362;55.932;2023-08-17T05:57:29;99964.88;;;30.10;29.97
78932;BME280;68331;53.362;55.932;2023-08-17T05:59:55;99959.44;;;30.74;29.04
78932;BME280;68331;53.362;55.932;2023-08-17T06:02:21;99955.78;;;32.36;26.76
78932;BME280;68331;53.362;55.932;2023-08-17T06:04:47;99951.56;;;33.72;24.22
78932;BME280;68331;53.362;55.932;2023-08-17T06:07:13;99947.66;;;33.60;24.66
78932;BME280;68331;53.362;55.932;2023-08-17T06:09:42;99959.09;;;33.27;24.95
78932;BME280;68331;53.362;55.932;2023-08-17T06:12:07;99960.25;;;34.25;23.86
78932;BME280;68331;53.362;55.932;2023-08-17T06:14:34;99963.81;;;34.88;23.20
78932;BME280;68331;53.362;55.932;2023-08-17T06:17:00;99944.97;;;37.24;20.71
78932;BME280;68331;53.362;55.932;2023-08-17T06:19:26;99951.06;;;40.80;16.62
78932;BME280;68331;53.362;55.932;2023-08-17T06:21:52;99944.34;;;43.61;14.33
78932;BME280;68331;53.362;55.932;2023-08-17T06:24:18;99943.16;;;45.52;12.35
78932;BME280;68331;53.362;55.932;2023-08-17T06:26:44;99944.88;;;46.90;11.64
78932;BME280;68331;53.362;55.932;2023-08-17T06:29:11;99936.16;;;47.51;10.50
78932;BME280;68331;53.362;55.932;2023-08-17T06:31:37;99927.16;;;47.93;10.33
78932;BME280;68331;53.362;55.932;2023-08-17T06:34:03;99926.00;;;48.24;9.67
78932;BME280;68331;53.362;55.932;2023-08-17T06:36:31;99919.63;;;48.42;9.50
78932;BME280;68331;53.362;55.932;2023-08-17T06:38:58;99921.88;;;48.40;9.39
78932;BME280;68331;53.362;55.932;2023-08-17T06:41:24;99918.03;;;48.36;9.01
78932;BME280;68331;53.362;55.932;2023-08-17T06:43:53;99922.50;;;48.61;8.94
78932;BME280;68331;53.362;55.932;2023-08-17T06:46:19;99932.84;;;47.44;9.25
78932;BME280;68331;53.362;55.932;2023-08-17T06:48:45;99928.78;;;43.92;11.63
78932;BME280;68331;53.362;55.932;2023-08-17T06:51:11;99925.91;;;42.79;12.64
78932;BME280;68331;53.362;55.932;2023-08-17T06:53:37;99928.03;;;44.54;10.78
78932;BME280;68331;53.362;55.932;2023-08-17T06:56:03;99918.53;;;45.03;10.75
78932;BME280;68331;53.362;55.932;2023-08-17T06:58:29;99921.66;;;42.93;11.96
78932;BME280;68331;53.362;55.932;2023-08-17T07:00:55;99911.69;;;42.97;11.93
78932;BME280;68331;53.362;55.932;2023-08-17T07:03:21;99910.09;;;44.30;10.70
78932;BME280;68331;53.362;55.932;2023-08-17T07:05:48;99907.16;;;44.47;10.71
78932;BME280;68331;53.362;55.932;2023-08-17T07:08:14;99913.03;;;43.16;11.18
78932;BME280;68331;53.362;55.932;2023-08-17T07:10:40;99904.81;;;41.66;12.44
78932;BME280;68331;53.362;55.932;2023-08-17T07:13:06;99917.47;;;40.24;13.47
78932;BME280;68331;53.362;55.932;2023-08-17T07:15:34;99917.94;;;38.83;14.66
78932;BME280;68331;53.362;55.932;2023-08-17T07:18:00;99908.84;;;37.14;15.94
78932;BME280;68331;53.362;55.932;2023-08-17T07:20:27;99907.25;;;36.22;16.74
78932;BME280;68331;53.362;55.932;2023-08-17T07:22:53;99919.66;;;35.51;17.53
78932;BME280;68331;53.362;55.932;2023-08-17T07:25:18;99913.06;;;35.06;17.90
78932;BME280;68331;53.362;55.932;2023-08-17T07:27:44;99920.53;;;34.42;18.46
78932;BME280;68331;53.362;55.932;2023-08-17T07:30:11;99915.47;;;33.83;19.25
78932;BME280;68331;53.362;55.932;2023-08-17T07:32:37;99918.84;;;33.42;19.83
78932;BME280;68331;53.362;55.932;2023-08-17T07:35:03;99920.28;;;33.17;19.88
78932;BME280;68331;53.362;55.932;2023-08-17T07:37:30;99928.22;;;33.11;19.98
78932;BME280;68331;53.362;55.932;2023-08-17T07:39:59;99921.72;;;33.13;19.35
78932;BME280;68331;53.362;55.932;2023-08-17T07:42:25;99912.78;;;33.47;19.44
78932;BME280;68331;53.362;55.932;2023-08-17T07:44:51;99925.09;;;33.79;19.21
78932;BME280;68331;53.362;55.932;2023-08-17T07:47:17;99923.97;;;33.67;19.39
78932;BME280;68331;53.362;55.932;2023-08-17T07:49:43;99936.88;;;33.73;19.13
78932;BME280;68331;53.362;55.932;2023-08-17T07:52:09;99925.00;;;33.66;19.67
78932;BME280;68331;53.362;55.932;2023-08-17T07:54:35;99922.75;;;33.76;19.24
78932;BME280;68331;53.362;55.932;2023-08-17T07:57:01;99932.78;;;34.12;19.10
78932;BME280;68331;53.362;55.932;2023-08-17T07:59:29;99920.53;;;34.42;19.10
78932;BME280;68331;53.362;55.932;2023-08-17T08:01:55;99923.59;;;34.61;18.79
78932;BME280;68331;53.362;55.932;2023-08-17T08:04:28;99922.03;;;34.86;18.73
78932;BME280;68331;53.362;55.932;2023-08-17T08:06:57;99914.13;;;35.05;18.63
78932;BME280;68331;53.362;55.932;2023-08-17T08:09:23;99918.00;;;34.82;18.62
78932;BME280;68331;53.362;55.932;2023-08-17T08:11:49;99929.50;;;34.58;18.92
78932;BME280;68331;53.362;55.932;2023-08-17T08:14:16;99917.28;;;34.60;19.19
78932;BME280;68331;53.362;55.932;2023-08-17T08:16:42;99911.09;;;34.93;18.82
78932;BME280;68331;53.362;55.932;2023-08-17T08:19:08;99922.19;;;35.26;18.57
78932;BME280;68331;53.362;55.932;2023-08-17T08:21:34;99920.53;;;35.45;18.46
78932;BME280;68331;53.362;55.932;2023-08-17T08:24:00;99916.91;;;35.38;18.46
78932;BME280;68331;53.362;55.932;2023-08-17T08:26:26;99918.81;;;35.31;18.70
78932;BME280;68331;53.362;55.932;2023-08-17T08:28:52;99913.53;;;35.29;18.39
78932;BME280;68331;53.362;55.932;2023-08-17T08:31:18;99925.09;;;35.11;18.71
78932;BME280;68331;53.362;55.932;2023-08-17T08:33:44;99941.41;;;34.78;17.99
78932;BME280;68331;53.362;55.932;2023-08-17T08:36:10;99930.34;;;34.58;18.27
78932;BME280;68331;53.362;55.932;2023-08-17T08:38:36;99959.44;;;34.31;17.69
78932;BME280;68331;53.362;55.932;2023-08-17T08:41:02;99945.19;;;33.86;17.38
78932;BME280;68331;53.362;55.932;2023-08-17T08:43:29;99938.16;;;33.77;17.69
78932;BME280;68331;53.362;55.932;2023-08-17T08:45:55;99939.00;;;33.77;17.85
78932;BME280;68331;53.362;55.932;2023-08-17T08:48:22;99934.13;;;33.73;18.02
78932;BME280;68331;53.362;55.932;2023-08-17T08:50:54;99937.00;;;34.14;17.70
78932;BME280;68331;53.362;55.932;2023-08-17T08:53:29;99936.13;;;34.42;17.39
78932;BME280;68331;53.362;55.932;2023-08-17T08:55:59;99932.53;;;34.76;16.74
78932;BME280;68331;53.362;55.932;2023-08-17T08:58:26;99942.41;;;34.70;17.21
78932;BME280;68331;53.362;55.932;2023-08-17T09:00:54;99933.59;;;34.75;17.06
78932;BME280;68331;53.362;55.932;2023-08-17T09:03:20;99941.56;;;34.70;16.77
78932;BME280;68331;53.362;55.932;2023-08-17T09:06:23;99900.66;;;34.27;16.58
78932;BME280;68331;53.362;55.932;2023-08-17T09:08:53;99928.91;;;34.62;17.18
78932;BME280;68331;53.362;55.932;2023-08-17T09:11:23;99918.22;;;34.87;16.73
78932;BME280;68331;53.362;55.932;2023-08-17T09:13:49;99930.16;;;35.14;16.81
78932;BME280;68331;53.362;55.932;2023-08-17T09:16:15;99923.56;;;35.02;16.33
78932;BME280;68331;53.362;55.932;2023-08-17T09:18:41;99924.53;;;34.81;17.05
78932;BME280;68331;53.362;55.932;2023-08-17T09:21:07;99926.00;;;34.77;17.34
78932;BME280;68331;53.362;55.932;2023-08-17T09:23:33;99928.78;;;34.90;16.30
78932;BME280;68331;53.362;55.932;2023-08-17T09:26:08;99920.16;;;34.93;16.93
78932;BME280;68331;53.362;55.932;2023-08-17T09:28:38;99915.78;;;35.06;16.72
78932;BME280;68331;53.362;55.932;2023-08-17T09:31:04;99934.44;;;35.30;16.38
78932;BME280;68331;53.362;55.932;2023-08-17T09:33:31;99927.47;;;35.28;16.78
78932;BME280;68331;53.362;55.932;2023-08-17T09:35:59;99928.28;;;35.28;16.66
78932;BME280;68331;53.362;55.932;2023-08-17T09:38:26;99919.66;;;35.51;16.46
78932;BME280;68331;53.362;55.932;2023-08-17T09:40:53;99928.69;;;35.12;16.88
78932;BME280;68331;53.362;55.932;2023-08-17T09:43:20;99933.69;;;34.54;16.80
78932;BME280;68331;53.362;55.932;2023-08-17T09:45:49;99930.72;;;33.92;17.47
78932;BME280;68331;53.362;55.932;2023-08-17T09:48:18;99918.69;;;33.65;17.36
78932;BME280;68331;53.362;55.932;2023-08-17T09:50:46;99925.50;;;33.76;17.29
78932;BME280;68331;53.362;55.932;2023-08-17T09:53:17;99928.63;;;34.22;17.64
78932;BME280;68331;53.362;55.932;2023-08-17T09:55:44;99922.47;;;34.97;16.48
78932;BME280;68331;53.362;55.932;2023-08-17T09:58:12;99931.69;;;35.44;16.22
78932;BME280;68331;53.362;55.932;2023-08-17T10:00:48;99928.72;;;35.25;16.08
78932;BME280;68331;53.362;55.932;2023-08-17T11:22:00;99930.22;;;35.48;16.14
78932;BME280;68331;53.362;55.932;2023-08-17T11:24:26;99927.75;;;35.59;15.68
78932;BME280;68331;53.362;55.932;2023-08-17T11:26:52;99924.72;;;35.41;16.63
78932;BME280;68331;53.362;55.932;2023-08-17T11:29:18;99917.31;;;35.28;16.64
78932;BME280;68331;53.362;55.932;2023-08-17T11:31:44;99930.41;;;35.26;16.07
78932;BME280;68331;53.362;55.932;2023-08-17T11:34:14;99923.47;;;35.44;16.51
78932;BME280;68331;53.362;55.932;2023-08-17T11:36:40;99921.84;;;35.62;16.06
78932;BME280;68331;53.362;55.932;2023-08-17T11:39:06;99921.56;;;35.44;16.19
78932;BME280;68331;53.362;55.932;2023-08-17T11:41:34;99928.91;;;35.10;16.52
78932;BME280;68331;53.362;55.932;2023-08-17T11:44:00;99936.38;;;34.82;16.68
78932;BME280;68331;53.362;55.932;2023-08-17T11:46:25;99927.47;;;34.73;16.77
78932;BME280;68331;53.362;55.932;2023-08-17T11:48:51;99930.84;;;34.75;16.90
78932;BME280;68331;53.362;55.932;2023-08-17T11:51:31;99930.19;;;34.66;16.85
78932;BME280;68331;53.362;55.932;2023-08-17T11:53:59;99922.84;;;34.45;17.28
78932;BME280;68331;53.362;55.932;2023-08-17T11:56:25;99926.44;;;34.46;17.50
78932;BME280;68331;53.362;55.932;2023-08-17T11:58:51;99922.84;;;34.45;16.84
78932;BME280;68331;53.362;55.932;2023-08-17T12:01:17;99918.63;;;34.43;17.11
78932;BME280;68331;53.362;55.932;2023-08-17T12:03:43;99921.31;;;34.36;17.37
78932;BME280;68331;53.362;55.932;2023-08-17T12:06:10;99924.22;;;34.21;17.54
78932;BME280;68331;53.362;55.932;2023-08-17T12:08:38;99916.56;;;34.17;17.28
78932;BME280;68331;53.362;55.932;2023-08-17T12:11:07;99924.47;;;34.33;17.16
78932;BME280;68331;53.362;55.932;2023-08-17T12:13:36;99918.94;;;34.55;17.09
78932;BME280;68331;53.362;55.932;2023-08-17T12:16:02;99925.16;;;34.77;16.76
78932;BME280;68331;53.362;55.932;2023-08-17T12:18:32;99914.88;;;34.85;17.42
78932;BME280;68331;53.362;55.932;2023-08-17T12:20:58;99918.56;;;34.64;17.31
78932;BME280;68331;53.362;55.932;2023-08-17T12:23:25;99921.34;;;34.43;17.64
78932;BME280;68331;53.362;55.932;2023-08-17T12:25:54;99923.78;;;34.53;17.84
78932;BME280;68331;53.362;55.932;2023-08-17T12:28:22;99911.88;;;34.80;17.25
78932;BME280;68331;53.362;55.932;2023-08-17T12:30:57;99918.34;;;35.07;17.21
78932;BME280;68331;53.362;55.932;2023-08-17T12:33:23;99920.81;;;35.02;16.91
78932;BME280;68331;53.362;55.932;2023-08-17T12:35:49;99909.38;;;34.85;17.25
78932;BME280;68331;53.362;55.932;2023-08-17T12:38:15;99921.97;;;34.73;16.91
78932;BME280;68331;53.362;55.932;2023-08-17T12:40:41;99913.56;;;34.81;17.08
78932;BME280;68331;53.362;55.932;2023-08-17T12:43:07;99911.69;;;34.82;17.07
78932;BME280;68331;53.362;55.932;2023-08-17T12:45:33;99921.56;;;34.76;17.01
78932;BME280;68331;53.362;55.932;2023-08-17T12:47:59;99907.06;;;34.47;17.63
78932;BME280;68331;53.362;55.932;2023-08-17T12:50:25;99919.31;;;34.17;17.79
78932;BME280;68331;53.362;55.932;2023-08-17T12:52:51;99930.31;;;33.95;18.22
78932;BME280;68331;53.362;55.932;2023-08-17T12:55:17;99928.53;;;33.88;18.62
78932;BME280;68331;53.362;55.932;2023-08-17T12:57:44;99925.84;;;33.94;18.51
78932;BME280;68331;53.362;55.932;2023-08-17T13:00:11;99929.59;;;33.87;18.26
78932;BME280;68331;53.362;55.932;2023-08-17T13:02:37;99928.09;;;33.84;18.26
78932;BME280;68331;53.362;55.932;2023-08-17T13:05:03;99926.16;;;33.78;18.70
78932;BME280;68331;53.362;55.932;2023-08-17T13:07:29;99922.84;;;33.61;19.30
78932;BME280;68331;53.362;55.932;2023-08-17T13:09:55;99927.66;;;33.80;18.68
78932;BME280;68331;53.362;55.932;2023-08-17T13:12:22;99932.34;;;33.87;18.61
78932;BME280;68331;53.362;55.932;2023-08-17T13:14:48;99936.97;;;33.86;18.77
78932;BME280;68331;53.362;55.932;2023-08-17T13:17:17;99936.78;;;33.66;18.98
78932;BME280;68331;53.362;55.932;2023-08-17T13:19:43;99931.19;;;33.53;19.61
78932;BME280;68331;53.362;55.932;2023-08-17T13:22:09;99931.09;;;33.46;19.52
78932;BME280;68331;53.362;55.932;2023-08-17T13:24:35;99931.25;;;33.38;19.36
78932;BME280;68331;53.362;55.932;2023-08-17T13:27:02;99940.16;;;33.25;19.33
78932;BME280;68331;53.362;55.932;2023-08-17T13:29:28;99939.34;;;32.95;20.17
78932;BME280;68331;53.362;55.932;2023-08-17T13:31:54;99941.53;;;32.85;19.97
78932;BME280;68331;53.362;55.932;2023-08-17T13:34:20;99938.34;;;32.81;20.40
78932;BME280;68331;53.362;55.932;2023-08-17T13:36:46;99945.13;;;32.85;20.49
78932;BME280;68331;53.362;55.932;2023-08-17T13:39:12;99938.53;;;32.80;20.45
78932;BME280;68331;53.362;55.932;2023-08-17T13:41:39;99946.47;;;32.60;20.70
78932;BME280;68331;53.362;55.932;2023-08-17T13:44:06;99943.84;;;32.52;21.07
78932;BME280;68331;53.362;55.932;2023-08-17T13:46:34;99944.94;;;32.57;20.97
78932;BME280;68331;53.362;55.932;2023-08-17T13:49:00;99945.72;;;32.66;21.03
78932;BME280;68331;53.362;55.932;2023-08-17T13:51:26;99940.16;;;32.74;21.14
78932;BME280;68331;53.362;55.932;2023-08-17T13:53:52;99951.34;;;32.79;20.84
78932;BME280;68331;53.362;55.932;2023-08-17T13:56:18;99938.72;;;32.78;21.28
78932;BME280;68331;53.362;55.932;2023-08-17T13:58:44;99937.81;;;32.71;21.05
78932;BME280;68331;53.362;55.932;2023-08-17T14:01:11;99929.69;;;32.63;21.13
78932;BME280;68331;53.362;55.932;2023-08-17T14:03:40;99949.47;;;32.65;21.03
78932;BME280;68331;53.362;55.932;2023-08-17T14:06:08;99952.22;;;32.50;20.99
78932;BME280;68331;53.362;55.932;2023-08-17T14:08:34;99951.16;;;32.36;21.20
78932;BME280;68331;53.362;55.932;2023-08-17T14:11:00;99957.38;;;32.30;21.15